sensor_id;sensor_type;location;lat;lon;timestamp;temperature;humidity
3288;DHT22;3260;52.438;13.502;2022-11-15T05:02:50;5.50;47.00
3288;DHT22;3260;52.438;13.502;2022-11-15T05:05:36;5.50;48.20
3288;DHT22;3260;52.438;13.502;2022-11-15T05:08:04;5.50;48.30
3288;DHT22;3260;52.438;13.502;2022-11-15T05:10:33;5.50;49.30
3288;DHT22;3260;52.438;13.502;2022-11-15T05:13:01;5.50;50.00
3288;DHT22;3260;52.438;13.502;2022-11-15T05:15:29;5.50;48.80
3288;DHT22;3260;52.438;13.502;2022-11-15T05:17:59;5.60;51.50
3288;DHT22;3260;52.438;13.502;2022-11-15T05:20:28;5.60;53.70
3288;DHT22;3260;52.438;13.502;2022-11-15T05:22:56;5.50;55.80
3288;DHT22;3260;52.438;13.502;2022-11-15T05:25:25;5.60;59.00
3288;DHT22;3260;52.438;13.502;2022-11-15T05:27:53;5.60;59.70
3288;DHT22;3260;52.438;13.502;2022-11-15T05:30:21;5.60;60.70
3288;DHT22;3260;52.438;13.502;2022-11-15T05:32:50;5.60;61.10
3288;DHT22;3260;52.438;13.502;2022-11-15T05:35:25;5.70;70.80
3288;DHT22;3260;52.438;13.502;2022-11-15T05:37:59;5.70;67.90
3288;DHT22;3260;52.438;13.502;2022-11-15T05:40:29;5.70;68.40
3288;DHT22;3260;52.438;13.502;2022-11-15T05:43:00;5.70;71.10
3288;DHT22;3260;52.438;13.502;2022-11-15T05:45:31;5.70;74.90
3288;DHT22;3260;52.438;13.502;2022-11-15T05:48:06;5.70;75.50
3288;DHT22;3260;52.438;13.502;2022-11-15T05:50:42;5.70;75.50
3288;DHT22;3260;52.438;13.502;2022-11-15T05:53:15;5.70;82.00
3288;DHT22;3260;52.438;13.502;2022-11-15T05:55:46;5.70;71.60
3288;DHT22;3260;52.438;13.502;2022-11-15T05:58:15;5.70;72.40
3288;DHT22;3260;52.438;13.502;2022-11-15T06:00:54;5.70;72.00
3288;DHT22;3260;52.438;13.502;2022-11-15T06:03:22;5.70;69.20
3288;DHT22;3260;52.438;13.502;2022-11-15T06:05:50;5.70;69.40
3288;DHT22;3260;52.438;13.502;2022-11-15T06:08:19;5.80;71.20
3288;DHT22;3260;52.438;13.502;2022-11-15T06:10:47;5.80;71.20
3288;DHT22;3260;52.438;13.502;2022-11-15T06:13:15;5.80;73.20
3288;DHT22;3260;52.438;13.502;2022-11-15T06:15:43;5.90;74.80
3288;DHT22;3260;52.438;13.502;2022-11-15T06:18:13;5.80;74.70
3288;DHT22;3260;52.438;13.502;2022-11-15T06:20:41;5.90;74.10
3288;DHT22;3260;52.438;13.502;2022-11-15T06:23:09;5.80;71.90
3288;DHT22;3260;52.438;13.502;2022-11-15T06:25:37;5.90;71.10
3288;DHT22;3260;52.438;13.502;2022-11-15T06:28:06;5.90;70.00
3288;DHT22;3260;52.438;13.502;2022-11-15T06:30:34;5.90;68.80
3288;DHT22;3260;52.438;13.502;2022-11-15T06:33:04;5.90;67.10
3288;DHT22;3260;52.438;13.502;2022-11-15T06:35:35;5.90;65.90
3288;DHT22;3260;52.438;13.502;2022-11-15T06:38:04;5.90;65.50
3288;DHT22;3260;52.438;13.502;2022-11-15T06:40:35;5.90;65.70
3288;DHT22;3260;52.438;13.502;2022-11-15T06:43:04;5.90;64.40
3288;DHT22;3260;52.438;13.502;2022-11-15T06:45:34;6.00;65.20
3288;DHT22;3260;52.438;13.502;2022-11-15T06:48:02;6.10;67.50
3288;DHT22;3260;52.438;13.502;2022-11-15T06:50:30;6.10;70.10
3288;DHT22;3260;52.438;13.502;2022-11-15T06:53:03;6.10;71.70
3288;DHT22;3260;52.438;13.502;2022-11-15T06:55:31;6.20;72.90
3288;DHT22;3260;52.438;13.502;2022-11-15T06:57:59;6.20;72.00
3288;DHT22;3260;52.438;13.502;2022-11-15T07:00:28;6.30;71.50
3288;DHT22;3260;52.438;13.502;2022-11-15T07:02:59;6.30;72.70
3288;DHT22;3260;52.438;13.502;2022-11-15T07:05:28;6.30;72.20
3288;DHT22;3260;52.438;13.502;2022-11-15T07:07:58;6.40;71.70
3288;DHT22;3260;52.438;13.502;2022-11-15T07:10:28;6.40;72.20
3288;DHT22;3260;52.438;13.502;2022-11-15T07:12:56;6.40;71.80
3288;DHT22;3260;52.438;13.502;2022-11-15T07:15:26;6.50;73.70
3288;DHT22;3260;52.438;13.502;2022-11-15T07:17:54;6.50;72.40
3288;DHT22;3260;52.438;13.502;2022-11-15T07:20:22;6.60;73.50
3288;DHT22;3260;52.438;13.502;2022-11-15T07:22:50;6.70;77.30
3288;DHT22;3260;52.438;13.502;2022-11-15T07:25:19;6.80;78.40
3288;DHT22;3260;52.438;13.502;2022-11-15T07:27:55;6.90;77.90
3288;DHT22;3260;52.438;13.502;2022-11-15T07:30:25;7.00;78.70
3288;DHT22;3260;52.438;13.502;2022-11-15T07:32:54;7.10;77.30
3288;DHT22;3260;52.438;13.502;2022-11-15T07:35:23;7.20;72.40
3288;DHT22;3260;52.438;13.502;2022-11-15T07:37:55;7.20;59.20
3288;DHT22;3260;52.438;13.502;2022-11-15T07:40:25;7.30;57.10
3288;DHT22;3260;52.438;13.502;2022-11-15T07:43:00;7.40;37.30
3288;DHT22;3260;52.438;13.502;2022-11-15T07:45:28;7.50;36.40
3288;DHT22;3260;52.438;13.502;2022-11-15T07:47:57;7.50;31.90
3288;DHT22;3260;52.438;13.502;2022-11-15T07:50:26;7.60;28.80
3288;DHT22;3260;52.438;13.502;2022-11-15T07:52:57;7.70;22.80
3288;DHT22;3260;52.438;13.502;2022-11-15T07:55:28;7.70;16.40
3288;DHT22;3260;52.438;13.502;2022-11-15T07:58:01;7.80;14.90
3288;DHT22;3260;52.438;13.502;2022-11-15T08:00:30;7.90;13.50
3288;DHT22;3260;52.438;13.502;2022-11-15T08:03:04;8.00;11.80
3288;DHT22;3260;52.438;13.502;2022-11-15T08:05:34;8.10;8.10
3288;DHT22;3260;52.438;13.502;2022-11-15T08:08:04;8.20;4.60
3288;DHT22;3260;52.438;13.502;2022-11-15T08:10:33;8.30;2.90
3288;DHT22;3260;52.438;13.502;2022-11-15T08:13:09;8.30;1.00
3288;DHT22;3260;52.438;13.502;2022-11-15T08:15:39;8.40;1.00
3288;DHT22;3260;52.438;13.502;2022-11-15T08:18:10;8.50;1.00
3288;DHT22;3260;52.438;13.502;2022-11-15T08:20:40;8.60;1.00
3288;DHT22;3260;52.438;13.502;2022-11-15T08:23:11;8.70;1.00
3288;DHT22;3260;52.438;13.502;2022-11-15T08:25:39;8.70;1.00
3288;DHT22;3260;52.438;13.502;2022-11-15T08:28:10;8.80;1.00
3288;DHT22;3260;52.438;13.502;2022-11-15T08:30:39;8.90;1.00
3288;DHT22;3260;52.438;13.502;2022-11-15T08:33:13;9.10;1.00
3288;DHT22;3260;52.438;13.502;2022-11-15T08:35:43;9.30;1.00
3288;DHT22;3260;52.438;13.502;2022-11-15T08:38:12;9.40;1.00
3288;DHT22;3260;52.438;13.502;2022-11-15T08:40:40;9.60;1.00
3288;DHT22;3260;52.438;13.502;2022-11-15T08:43:10;9.80;1.00
3288;DHT22;3260;52.438;13.502;2022-11-15T08:45:38;10.00;1.00
3288;DHT22;3260;52.438;13.502;2022-11-15T08:48:07;10.20;1.00
3288;DHT22;3260;52.438;13.502;2022-11-15T08:50:35;10.40;1.00
3288;DHT22;3260;52.438;13.502;2022-11-15T08:53:06;10.60;1.00
3288;DHT22;3260;52.438;13.502;2022-11-15T08:55:36;10.80;1.00
3288;DHT22;3260;52.438;13.502;2022-11-15T08:58:05;11.10;1.00
3288;DHT22;3260;52.438;13.502;2022-11-15T09:00:35;11.30;1.00
3288;DHT22;3260;52.438;13.502;2022-11-15T09:03:04;11.40;1.00
3288;DHT22;3260;52.438;13.502;2022-11-15T09:05:36;11.50;1.00
3288;DHT22;3260;52.438;13.502;2022-11-15T09:08:05;11.60;1.00
3288;DHT22;3260;52.438;13.502;2022-11-15T09:10:54;11.70;1.00
3288;DHT22;3260;52.438;13.502;2022-11-15T09:13:22;11.80;1.00
3288;DHT22;3260;52.438;13.502;2022-11-15T09:15:52;11.80;1.00
3288;DHT22;3260;52.438;13.502;2022-11-15T09:18:25;11.80;1.00
3288;DHT22;3260;52.438;13.502;2022-11-15T09:20:55;12.00;1.00
3288;DHT22;3260;52.438;13.502;2022-11-15T09:23:24;12.10;1.00
3288;DHT22;3260;52.438;13.502;2022-11-15T09:25:58;12.30;1.00
3288;DHT22;3260;52.438;13.502;2022-11-15T09:28:28;12.40;1.00
3288;DHT22;3260;52.438;13.502;2022-11-15T09:31:00;12.50;1.00
3288;DHT22;3260;52.438;13.502;2022-11-15T09:33:30;12.70;1.00
3288;DHT22;3260;52.438;13.502;2022-11-15T09:36:01;12.80;1.00
3288;DHT22;3260;52.438;13.502;2022-11-15T09:38:31;13.00;1.00
3288;DHT22;3260;52.438;13.502;2022-11-15T09:41:27;13.20;1.00
3288;DHT22;3260;52.438;13.502;2022-11-15T09:44:14;13.30;1.00
3288;DHT22;3260;52.438;13.502;2022-11-15T09:47:02;13.30;1.00
3288;DHT22;3260;52.438;13.502;2022-11-15T09:49:36;13.40;1.00
3288;DHT22;3260;52.438;13.502;2022-11-15T09:52:07;13.30;1.00
3288;DHT22;3260;52.438;13.502;2022-11-15T09:54:41;13.50;1.00
3288;DHT22;3260;52.438;13.502;2022-11-15T09:57:23;13.60;1.00
3288;DHT22;3260;52.438;13.502;2022-11-15T10:00:09;13.80;1.00
3288;DHT22;3260;52.438;13.502;2022-11-15T10:03:10;14.10;1.00
3288;DHT22;3260;52.438;13.502;2022-11-15T10:05:43;14.40;1.00
3288;DHT22;3260;52.438;13.502;2022-11-15T10:08:37;14.70;1.00
3288;DHT22;3260;52.438;13.502;2022-11-15T10:11:18;14.90;1.00
3288;DHT22;3260;52.438;13.502;2022-11-15T10:14:10;15.10;1.00
3288;DHT22;3260;52.438;13.502;2022-11-15T10:17:06;15.30;1.00
3288;DHT22;3260;52.438;13.502;2022-11-15T10:20:03;15.50;1.00
3288;DHT22;3260;52.438;13.502;2022-11-15T10:22:40;15.80;1.00
3288;DHT22;3260;52.438;13.502;2022-11-15T10:25:18;15.90;1.00
3288;DHT22;3260;52.438;13.502;2022-11-15T10:27:54;16.10;1.00
3288;DHT22;3260;52.438;13.502;2022-11-15T10:30:32;16.20;1.00
3288;DHT22;3260;52.438;13.502;2022-11-15T10:33:17;16.20;1.00
3288;DHT22;3260;52.438;13.502;2022-11-15T10:36:19;16.40;1.00
3288;DHT22;3260;52.438;13.502;2022-11-15T10:38:56;16.60;1.00
3288;DHT22;3260;52.438;13.502;2022-11-15T10:41:37;16.80;1.00
3288;DHT22;3260;52.438;13.502;2022-11-15T10:44:28;17.00;1.00
3288;DHT22;3260;52.438;13.502;2022-11-15T10:50:07;17.50;1.00
3288;DHT22;3260;52.438;13.502;2022-11-15T10:52:55;17.70;1.00
3288;DHT22;3260;52.438;13.502;2022-11-15T10:55:26;18.10;1.00
3288;DHT22;3260;52.438;13.502;2022-11-15T10:58:01;18.30;1.00
3288;DHT22;3260;52.438;13.502;2022-11-15T11:00:36;18.50;1.00
3288;DHT22;3260;52.438;13.502;2022-11-15T11:03:25;18.60;1.00
3288;DHT22;3260;52.438;13.502;2022-11-15T11:06:05;18.90;1.00
3288;DHT22;3260;52.438;13.502;2022-11-15T11:08:37;19.20;1.00
3288;DHT22;3260;52.438;13.502;2022-11-15T11:11:06;19.40;1.00
3288;DHT22;3260;52.438;13.502;2022-11-15T11:13:37;19.50;1.00
3288;DHT22;3260;52.438;13.502;2022-11-15T11:16:36;19.50;1.00
3288;DHT22;3260;52.438;13.502;2022-11-15T11:22:28;20.00;1.00
3288;DHT22;3260;52.438;13.502;2022-11-15T11:25:19;20.20;1.00
3288;DHT22;3260;52.438;13.502;2022-11-15T11:28:11;20.30;1.00
3288;DHT22;3260;52.438;13.502;2022-11-15T11:31:13;20.20;1.00
3288;DHT22;3260;52.438;13.502;2022-11-15T11:34:00;20.10;1.00
3288;DHT22;3260;52.438;13.502;2022-11-15T11:36:40;19.90;1.00
3288;DHT22;3260;52.438;13.502;2022-11-15T11:39:28;19.80;1.00
3288;DHT22;3260;52.438;13.502;2022-11-15T11:42:15;20.00;1.00
3288;DHT22;3260;52.438;13.502;2022-11-15T11:44:56;20.40;1.00
3288;DHT22;3260;52.438;13.502;2022-11-15T11:47:32;20.70;1.00
3288;DHT22;3260;52.438;13.502;2022-11-15T11:50:13;20.80;1.00
3288;DHT22;3260;52.438;13.502;2022-11-15T11:52:54;20.90;1.00
3288;DHT22;3260;52.438;13.502;2022-11-15T11:55:33;21.20;1.00
3288;DHT22;3260;52.438;13.502;2022-11-15T11:58:13;21.40;1.00
3288;DHT22;3260;52.438;13.502;2022-11-15T12:00:49;21.60;1.00
3288;DHT22;3260;52.438;13.502;2022-11-15T12:03:25;21.90;1.00
3288;DHT22;3260;52.438;13.502;2022-11-15T12:06:00;22.30;1.00
3288;DHT22;3260;52.438;13.502;2022-11-15T12:08:35;22.60;1.00
3288;DHT22;3260;52.438;13.502;2022-11-15T12:14:12;23.50;1.00
3288;DHT22;3260;52.438;13.502;2022-11-15T12:16:49;23.90;1.00
3288;DHT22;3260;52.438;13.502;2022-11-15T12:19:18;24.30;1.00
3288;DHT22;3260;52.438;13.502;2022-11-15T12:21:48;24.90;1.00
3288;DHT22;3260;52.438;13.502;2022-11-15T12:24:25;25.40;1.00
3288;DHT22;3260;52.438;13.502;2022-11-15T12:27:01;25.90;1.00
3288;DHT22;3260;52.438;13.502;2022-11-15T12:29:37;26.20;1.00
3288;DHT22;3260;52.438;13.502;2022-11-15T12:32:26;26.70;1.00
3288;DHT22;3260;52.438;13.502;2022-11-15T12:35:00;27.10;1.00
3288;DHT22;3260;52.438;13.502;2022-11-15T12:40:32;28.00;1.00
3288;DHT22;3260;52.438;13.502;2022-11-15T12:43:37;28.50;1.00
3288;DHT22;3260;52.438;13.502;2022-11-15T12:46:18;28.90;1.00
3288;DHT22;3260;52.438;13.502;2022-11-15T12:48:56;29.50;1.00
3288;DHT22;3260;52.438;13.502;2022-11-15T12:54:57;30.30;1.00
3288;DHT22;3260;52.438;13.502;2022-11-15T12:57:35;30.60;1.00
3288;DHT22;3260;52.438;13.502;2022-11-15T13:03:26;31.20;1.00
3288;DHT22;3260;52.438;13.502;2022-11-15T13:12:52;32.00;1.00
3288;DHT22;3260;52.438;13.502;2022-11-15T13:15:45;32.20;1.00
3288;DHT22;3260;52.438;13.502;2022-11-15T13:18:38;32.00;1.00
3288;DHT22;3260;52.438;13.502;2022-11-15T13:21:22;31.80;1.00
3288;DHT22;3260;52.438;13.502;2022-11-15T13:24:12;31.80;1.00
3288;DHT22;3260;52.438;13.502;2022-11-15T13:26:43;32.10;1.00
3288;DHT22;3260;52.438;13.502;2022-11-15T13:29:18;32.40;1.00
3288;DHT22;3260;52.438;13.502;2022-11-15T13:31:47;32.80;1.00
3288;DHT22;3260;52.438;13.502;2022-11-15T13:34:24;32.90;1.00
3288;DHT22;3260;52.438;13.502;2022-11-15T13:37:30;32.90;1.00
3288;DHT22;3260;52.438;13.502;2022-11-15T13:40:34;33.10;1.00
3288;DHT22;3260;52.438;13.502;2022-11-15T13:43:26;33.10;1.00
3288;DHT22;3260;52.438;13.502;2022-11-15T13:46:07;32.90;1.00
3288;DHT22;3260;52.438;13.502;2022-11-15T13:48:40;32.80;1.00
3288;DHT22;3260;52.438;13.502;2022-11-15T13:51:16;32.60;1.00
3288;DHT22;3260;52.438;13.502;2022-11-15T13:53:51;32.30;1.00
3288;DHT22;3260;52.438;13.502;2022-11-15T13:56:22;32.00;1.00
3288;DHT22;3260;52.438;13.502;2022-11-15T13:58:52;31.70;1.00
3288;DHT22;3260;52.438;13.502;2022-11-15T14:01:22;31.30;1.00
3288;DHT22;3260;52.438;13.502;2022-11-15T14:03:56;30.80;1.00
3288;DHT22;3260;52.438;13.502;2022-11-15T14:06:29;30.70;1.00
3288;DHT22;3260;52.438;13.502;2022-11-15T14:09:15;30.50;1.00
3288;DHT22;3260;52.438;13.502;2022-11-15T14:11:56;30.20;1.00
3288;DHT22;3260;52.438;13.502;2022-11-15T14:14:27;29.80;1.00
3288;DHT22;3260;52.438;13.502;2022-11-15T14:16:58;29.60;1.00
3288;DHT22;3260;52.438;13.502;2022-11-15T14:19:38;29.40;1.00
3288;DHT22;3260;52.438;13.502;2022-11-15T14:22:13;29.30;1.00
3288;DHT22;3260;52.438;13.502;2022-11-15T14:24:45;28.90;1.00
3288;DHT22;3260;52.438;13.502;2022-11-15T14:27:23;28.40;1.00
3288;DHT22;3260;52.438;13.502;2022-11-15T14:29:53;27.80;1.00
3288;DHT22;3260;52.438;13.502;2022-11-15T14:32:23;27.20;1.00
3288;DHT22;3260;52.438;13.502;2022-11-15T14:34:55;26.30;1.00
3288;DHT22;3260;52.438;13.502;2022-11-15T14:37:27;25.50;1.00
3288;DHT22;3260;52.438;13.502;2022-11-15T14:39:58;24.70;1.00
3288;DHT22;3260;52.438;13.502;2022-11-15T14:42:26;23.70;1.00
3288;DHT22;3260;52.438;13.502;2022-11-15T14:44:54;22.60;1.00
3288;DHT22;3260;52.438;13.502;2022-11-15T14:47:22;21.60;1.00
3288;DHT22;3260;52.438;13.502;2022-11-15T14:49:51;20.80;1.00
3288;DHT22;3260;52.438;13.502;2022-11-15T14:52:28;20.00;1.00
3288;DHT22;3260;52.438;13.502;2022-11-15T14:55:01;19.30;1.00
3288;DHT22;3260;52.438;13.502;2022-11-15T14:57:31;18.70;1.00
3288;DHT22;3260;52.438;13.502;2022-11-15T15:00:00;18.20;1.00
3288;DHT22;3260;52.438;13.502;2022-11-15T15:02:29;17.70;1.00
3288;DHT22;3260;52.438;13.502;2022-11-15T15:04:58;17.20;1.00
3288;DHT22;3260;52.438;13.502;2022-11-15T15:07:31;16.80;1.00
3288;DHT22;3260;52.438;13.502;2022-11-15T15:09:59;16.40;1.00
3288;DHT22;3260;52.438;13.502;2022-11-15T15:12:47;16.00;1.00
3288;DHT22;3260;52.438;13.502;2022-11-15T15:15:21;15.70;1.00
3288;DHT22;3260;52.438;13.502;2022-11-15T15:17:52;15.40;1.00
3288;DHT22;3260;52.438;13.502;2022-11-15T15:20:20;15.00;1.00
3288;DHT22;3260;52.438;13.502;2022-11-15T15:22:50;14.80;1.00
3288;DHT22;3260;52.438;13.502;2022-11-15T15:25:23;14.50;1.00
3288;DHT22;3260;52.438;13.502;2022-11-15T15:27:55;14.30;1.00
3288;DHT22;3260;52.438;13.502;2022-11-15T15:30:25;14.10;1.00
3288;DHT22;3260;52.438;13.502;2022-11-15T15:32:55;13.90;1.00
3288;DHT22;3260;52.438;13.502;2022-11-15T15:35:25;13.70;1.00
3288;DHT22;3260;52.438;13.502;2022-11-15T15:37:58;13.50;1.00
3288;DHT22;3260;52.438;13.502;2022-11-15T15:40:28;13.30;1.00
3288;DHT22;3260;52.438;13.502;2022-11-15T15:42:57;13.10;1.00
3288;DHT22;3260;52.438;13.502;2022-11-15T15:45:26;13.00;1.00
3288;DHT22;3260;52.438;13.502;2022-11-15T15:47:56;12.80;1.00
3288;DHT22;3260;52.438;13.502;2022-11-15T15:50:26;12.70;1.00
3288;DHT22;3260;52.438;13.502;2022-11-15T15:52:58;12.60;1.00
3288;DHT22;3260;52.438;13.502;2022-11-15T15:55:28;12.40;1.00
3288;DHT22;3260;52.438;13.502;2022-11-15T15:57:56;12.30;1.00
3288;DHT22;3260;52.438;13.502;2022-11-15T16:00:25;12.20;1.00
3288;DHT22;3260;52.438;13.502;2022-11-15T16:02:54;12.10;1.00
3288;DHT22;3260;52.438;13.502;2022-11-15T16:05:22;12.00;1.00
3288;DHT22;3260;52.438;13.502;2022-11-15T16:07:51;11.90;1.00
3288;DHT22;3260;52.438;13.502;2022-11-15T16:10:23;11.80;1.00
3288;DHT22;3260;52.438;13.502;2022-11-15T16:12:53;11.70;1.00
3288;DHT22;3260;52.438;13.502;2022-11-15T16:15:24;11.60;1.00
3288;DHT22;3260;52.438;13.502;2022-11-15T16:17:55;11.50;1.00
3288;DHT22;3260;52.438;13.502;2022-11-15T16:20:33;11.40;1.00
3288;DHT22;3260;52.438;13.502;2022-11-15T16:23:05;11.40;1.00
3288;DHT22;3260;52.438;13.502;2022-11-15T16:25:43;11.30;1.00
3288;DHT22;3260;52.438;13.502;2022-11-15T16:28:20;11.20;1.00
3288;DHT22;3260;52.438;13.502;2022-11-15T16:30:59;11.10;1.00
3288;DHT22;3260;52.438;13.502;2022-11-15T16:33:29;11.00;1.00
3288;DHT22;3260;52.438;13.502;2022-11-15T16:35:58;10.90;1.00
3288;DHT22;3260;52.438;13.502;2022-11-15T16:38:27;10.90;1.00
3288;DHT22;3260;52.438;13.502;2022-11-15T16:40:56;10.80;1.00
3288;DHT22;3260;52.438;13.502;2022-11-15T16:43:24;10.80;1.00
3288;DHT22;3260;52.438;13.502;2022-11-15T16:45:54;10.60;1.00
3288;DHT22;3260;52.438;13.502;2022-11-15T16:48:23;10.50;1.00
3288;DHT22;3260;52.438;13.502;2022-11-15T16:50:54;10.50;1.00
3288;DHT22;3260;52.438;13.502;2022-11-15T16:53:24;10.40;1.00
3288;DHT22;3260;52.438;13.502;2022-11-15T16:55:55;10.30;1.00
3288;DHT22;3260;52.438;13.502;2022-11-15T16:58:24;10.30;1.00
3288;DHT22;3260;52.438;13.502;2022-11-15T17:00:53;10.20;1.00
3288;DHT22;3260;52.438;13.502;2022-11-15T17:03:23;10.10;1.00
3288;DHT22;3260;52.438;13.502;2022-11-15T17:05:52;10.10;1.00
3288;DHT22;3260;52.438;13.502;2022-11-15T17:08:25;10.00;1.00
3288;DHT22;3260;52.438;13.502;2022-11-15T17:10:55;9.90;1.00
3288;DHT22;3260;52.438;13.502;2022-11-15T17:13:23;9.90;1.00
3288;DHT22;3260;52.438;13.502;2022-11-15T17:16:03;9.80;1.00
3288;DHT22;3260;52.438;13.502;2022-11-15T17:18:32;9.80;1.00
3288;DHT22;3260;52.438;13.502;2022-11-15T17:21:05;9.70;1.00
3288;DHT22;3260;52.438;13.502;2022-11-15T17:23:35;9.60;1.00
3288;DHT22;3260;52.438;13.502;2022-11-15T17:26:05;9.60;1.00
3288;DHT22;3260;52.438;13.502;2022-11-15T17:28:54;9.50;1.00
3288;DHT22;3260;52.438;13.502;2022-11-15T17:31:23;9.50;1.00
3288;DHT22;3260;52.438;13.502;2022-11-15T17:33:52;9.40;1.00
3288;DHT22;3260;52.438;13.502;2022-11-15T17:36:20;9.40;1.00
3288;DHT22;3260;52.438;13.502;2022-11-15T17:38:49;9.30;1.00
3288;DHT22;3260;52.438;13.502;2022-11-15T17:41:26;9.30;1.00
3288;DHT22;3260;52.438;13.502;2022-11-15T17:43:55;9.20;1.00
3288;DHT22;3260;52.438;13.502;2022-11-15T17:46:27;9.20;1.00
3288;DHT22;3260;52.438;13.502;2022-11-15T17:48:56;9.10;1.00
3288;DHT22;3260;52.438;13.502;2022-11-15T17:51:25;9.10;1.00
3288;DHT22;3260;52.438;13.502;2022-11-15T17:53:54;9.10;1.00
3288;DHT22;3260;52.438;13.502;2022-11-15T17:56:24;9.10;1.00
3288;DHT22;3260;52.438;13.502;2022-11-15T17:58:57;9.00;1.00
3288;DHT22;3260;52.438;13.502;2022-11-15T18:01:28;9.00;1.00
3288;DHT22;3260;52.438;13.502;2022-11-15T18:03:58;8.90;1.00
3288;DHT22;3260;52.438;13.502;2022-11-15T18:06:28;8.90;1.00
3288;DHT22;3260;52.438;13.502;2022-11-15T18:08:58;8.90;1.00
3288;DHT22;3260;52.438;13.502;2022-11-15T18:11:30;8.90;1.00
3288;DHT22;3260;52.438;13.502;2022-11-15T18:14:00;8.80;1.00
3288;DHT22;3260;52.438;13.502;2022-11-15T18:16:31;8.80;1.00
3288;DHT22;3260;52.438;13.502;2022-11-15T18:19:02;8.80;1.00
3288;DHT22;3260;52.438;13.502;2022-11-15T18:21:34;8.70;1.00
3288;DHT22;3260;52.438;13.502;2022-11-15T18:24:22;8.60;1.00
3288;DHT22;3260;52.438;13.502;2022-11-15T18:26:52;8.60;1.00
3288;DHT22;3260;52.438;13.502;2022-11-15T18:29:21;8.60;1.00
3288;DHT22;3260;52.438;13.502;2022-11-15T18:31:51;8.60;1.00
3288;DHT22;3260;52.438;13.502;2022-11-15T18:34:22;8.60;1.00
3288;DHT22;3260;52.438;13.502;2022-11-15T18:36:52;8.50;2.60
3288;DHT22;3260;52.438;13.502;2022-11-15T18:39:20;8.50;6.20
3288;DHT22;3260;52.438;13.502;2022-11-15T18:41:48;8.50;6.70
3288;DHT22;3260;52.438;13.502;2022-11-15T18:44:19;8.50;6.80
3288;DHT22;3260;52.438;13.502;2022-11-15T18:46:47;8.40;7.50
3288;DHT22;3260;52.438;13.502;2022-11-15T18:49:16;8.40;7.70
3288;DHT22;3260;52.438;13.502;2022-11-15T18:51:47;8.40;7.00
3288;DHT22;3260;52.438;13.502;2022-11-15T18:54:16;8.40;6.80
3288;DHT22;3260;52.438;13.502;2022-11-15T18:56:44;8.30;6.70
3288;DHT22;3260;52.438;13.502;2022-11-15T18:59:14;8.30;6.30
3288;DHT22;3260;52.438;13.502;2022-11-15T19:01:44;8.20;6.70
3288;DHT22;3260;52.438;13.502;2022-11-15T19:04:15;8.20;6.00
3288;DHT22;3260;52.438;13.502;2022-11-15T19:06:47;8.20;5.30
3288;DHT22;3260;52.438;13.502;2022-11-15T19:09:17;8.10;4.60
3288;DHT22;3260;52.438;13.502;2022-11-15T19:11:47;8.10;9.20
3288;DHT22;3260;52.438;13.502;2022-11-15T19:14:18;8.10;15.20
3288;DHT22;3260;52.438;13.502;2022-11-15T19:16:51;8.10;20.70
3288;DHT22;3260;52.438;13.502;2022-11-15T19:19:22;8.10;26.30
3288;DHT22;3260;52.438;13.502;2022-11-15T19:21:51;8.10;31.50
3288;DHT22;3260;52.438;13.502;2022-11-15T19:24:19;8.20;36.90
3288;DHT22;3260;52.438;13.502;2022-11-15T19:26:48;8.30;39.00
3288;DHT22;3260;52.438;13.502;2022-11-15T19:29:16;8.40;42.70
3288;DHT22;3260;52.438;13.502;2022-11-15T19:31:44;8.40;44.00
3288;DHT22;3260;52.438;13.502;2022-11-15T19:34:15;8.50;44.00
3288;DHT22;3260;52.438;13.502;2022-11-15T19:36:44;8.60;41.80
3288;DHT22;3260;52.438;13.502;2022-11-15T19:39:14;8.60;39.40
3288;DHT22;3260;52.438;13.502;2022-11-15T19:41:44;8.70;37.30
3288;DHT22;3260;52.438;13.502;2022-11-15T19:44:13;8.70;37.20
3288;DHT22;3260;52.438;13.502;2022-11-15T19:46:42;8.80;33.70
3288;DHT22;3260;52.438;13.502;2022-11-15T19:49:11;8.90;29.70
3288;DHT22;3260;52.438;13.502;2022-11-15T19:51:40;8.90;19.80
3288;DHT22;3260;52.438;13.502;2022-11-15T19:54:10;8.90;15.70
3288;DHT22;3260;52.438;13.502;2022-11-15T19:56:39;9.00;12.20
3288;DHT22;3260;52.438;13.502;2022-11-15T19:59:08;9.00;8.20
3288;DHT22;3260;52.438;13.502;2022-11-15T20:01:37;9.10;2.80
3288;DHT22;3260;52.438;13.502;2022-11-15T20:04:07;9.10;1.00
3288;DHT22;3260;52.438;13.502;2022-11-15T20:06:37;9.10;1.00
3288;DHT22;3260;52.438;13.502;2022-11-15T20:09:11;9.10;1.00
3288;DHT22;3260;52.438;13.502;2022-11-15T20:11:40;9.10;1.00
3288;DHT22;3260;52.438;13.502;2022-11-15T20:14:09;9.10;1.00
3288;DHT22;3260;52.438;13.502;2022-11-15T20:16:38;9.10;1.00
3288;DHT22;3260;52.438;13.502;2022-11-15T20:19:07;9.10;1.00
3288;DHT22;3260;52.438;13.502;2022-11-15T20:21:38;9.20;1.00
3288;DHT22;3260;52.438;13.502;2022-11-15T20:24:08;9.20;1.00
3288;DHT22;3260;52.438;13.502;2022-11-15T20:26:38;9.20;1.00
3288;DHT22;3260;52.438;13.502;2022-11-15T20:29:06;9.10;1.00
3288;DHT22;3260;52.438;13.502;2022-11-15T20:31:35;9.20;1.00
3288;DHT22;3260;52.438;13.502;2022-11-15T20:34:04;9.20;1.00
3288;DHT22;3260;52.438;13.502;2022-11-15T20:36:32;9.20;1.00
3288;DHT22;3260;52.438;13.502;2022-11-15T20:39:02;9.20;1.00
3288;DHT22;3260;52.438;13.502;2022-11-15T20:41:30;9.10;1.00
3288;DHT22;3260;52.438;13.502;2022-11-15T20:43:59;9.10;1.00
3288;DHT22;3260;52.438;13.502;2022-11-15T20:46:28;9.20;1.00
3288;DHT22;3260;52.438;13.502;2022-11-15T20:48:56;9.10;1.00
3288;DHT22;3260;52.438;13.502;2022-11-15T20:51:25;9.10;1.00
3288;DHT22;3260;52.438;13.502;2022-11-15T20:53:53;9.10;1.00
3288;DHT22;3260;52.438;13.502;2022-11-15T20:56:23;9.10;1.00
3288;DHT22;3260;52.438;13.502;2022-11-15T20:58:52;9.10;1.00
3288;DHT22;3260;52.438;13.502;2022-11-15T21:01:22;9.10;1.00
3288;DHT22;3260;52.438;13.502;2022-11-15T21:03:51;9.10;1.00
3288;DHT22;3260;52.438;13.502;2022-11-15T21:06:21;9.10;1.00
3288;DHT22;3260;52.438;13.502;2022-11-15T21:08:51;9.10;1.00
3288;DHT22;3260;52.438;13.502;2022-11-15T21:11:40;9.10;1.00
3288;DHT22;3260;52.438;13.502;2022-11-15T21:14:25;9.10;1.00
3288;DHT22;3260;52.438;13.502;2022-11-15T21:16:54;9.10;1.00
3288;DHT22;3260;52.438;13.502;2022-11-15T21:19:22;9.10;1.00
3288;DHT22;3260;52.438;13.502;2022-11-15T21:22:00;9.10;1.00
3288;DHT22;3260;52.438;13.502;2022-11-15T21:24:29;9.10;1.00
3288;DHT22;3260;52.438;13.502;2022-11-15T21:26:59;9.10;1.00
3288;DHT22;3260;52.438;13.502;2022-11-15T21:29:28;9.10;1.00
3288;DHT22;3260;52.438;13.502;2022-11-15T21:32:03;9.10;1.00
3288;DHT22;3260;52.438;13.502;2022-11-15T21:34:33;9.10;1.00
3288;DHT22;3260;52.438;13.502;2022-11-15T21:37:01;9.00;1.00
3288;DHT22;3260;52.438;13.502;2022-11-15T21:39:30;9.00;1.00
3288;DHT22;3260;52.438;13.502;2022-11-15T21:42:00;9.10;1.00
3288;DHT22;3260;52.438;13.502;2022-11-15T21:44:28;9.00;1.00
3288;DHT22;3260;52.438;13.502;2022-11-15T21:46:56;9.00;1.00
3288;DHT22;3260;52.438;13.502;2022-11-15T21:49:24;9.10;1.00
3288;DHT22;3260;52.438;13.502;2022-11-15T21:51:53;9.10;1.00
3288;DHT22;3260;52.438;13.502;2022-11-15T21:54:21;9.00;1.00
3288;DHT22;3260;52.438;13.502;2022-11-15T21:56:49;9.00;1.00
3288;DHT22;3260;52.438;13.502;2022-11-15T21:59:19;9.00;1.00
